Time,TemperatureF,DewpointF,PressureIn,WindDirection,WindDirectionDegrees,WindSpeedMPH,WindSpeedGustMPH,Humidity,HourlyPrecipIn,Conditions,Clouds,dailyrainin,SolarRadiationWatts/m^2,SoftwareType,DateUTC
2013-01-19 00:00:00,33.4,30.2,30.40,SSE,162,0.0,11.0,88,0.00,,,0.00,0.0,meteohub,2013-01-19 08:00:00,
2013-01-19 00:05:00,35.4,32.0,30.40,ESE,121,5.0,12.0,87,0.00,,,0.00,0.0,meteohub,2013-01-19 08:05:00,
2013-01-19 00:10:00,36.5,32.2,30.40,SE,132,7.0,18.0,84,0.00,,,0.00,0.0,meteohub,2013-01-19 08:10:00,
2013-01-19 00:15:00,36.7,32.0,30.40,South,177,5.0,18.0,83,0.00,,,0.00,0.0,meteohub,2013-01-19 08:15:00,
2013-01-19 00:21:00,36.7,32.0,30.40,SE,126,8.0,19.0,83,0.00,,,0.00,0.0,meteohub,2013-01-19 08:21:00,
2013-01-19 00:26:00,36.5,31.8,30.39,WNW,286,5.0,19.0,83,0.00,,,0.00,0.0,meteohub,2013-01-19 08:26:00,
2013-01-19 00:31:00,36.5,31.8,30.40,SSE,150,11.0,17.0,83,0.00,,,0.00,0.0,meteohub,2013-01-19 08:31:00,
2013-01-19 00:36:00,36.5,31.8,30.39,NNW,327,5.0,17.0,83,0.00,,,0.00,0.0,meteohub,2013-01-19 08:36:00,
2013-01-19 00:41:00,36.3,31.6,30.40,ESE,108,0.0,17.0,83,0.00,,,0.00,0.0,meteohub,2013-01-19 08:41:00,
2013-01-19 00:46:00,35.2,30.6,30.40,WNW,296,4.0,19.0,83,0.00,,,0.00,0.0,meteohub,2013-01-19 08:46:00,
2013-01-19 00:51:00,33.4,28.6,30.40,NW,318,4.0,19.0,82,0.00,,,0.00,0.0,meteohub,2013-01-19 08:51:00,
2013-01-19 00:56:00,31.8,28.0,30.40,WNW,300,5.0,9.0,86,0.00,,,0.00,0.0,meteohub,2013-01-19 08:56:00,
2013-01-19 01:01:00,32.2,29.7,30.40,East,100,8.0,8.0,90,0.00,,,0.00,0.0,meteohub,2013-01-19 09:01:00,
2013-01-19 01:06:00,34.7,31.5,30.40,SSE,151,1.0,11.0,88,0.00,,,0.00,0.0,meteohub,2013-01-19 09:06:00,
2013-01-19 01:11:00,35.1,31.6,30.40,SE,136,3.0,12.0,87,0.00,,,0.00,0.0,meteohub,2013-01-19 09:11:00,
2013-01-19 01:17:00,35.2,31.5,30.40,SE,134,6.0,12.0,86,0.00,,,0.00,0.0,meteohub,2013-01-19 09:17:00,
2013-01-19 01:22:00,36.0,31.6,30.40,East,95,1.0,13.0,84,0.00,,,0.00,0.0,meteohub,2013-01-19 09:22:00,
2013-01-19 01:27:00,34.7,29.5,30.40,West,274,1.0,14.0,81,0.00,,,0.00,0.0,meteohub,2013-01-19 09:27:00,
2013-01-19 01:32:00,33.1,29.1,30.40,SE,136,2.0,14.0,85,0.00,,,0.00,0.0,meteohub,2013-01-19 09:32:00,
2013-01-19 01:37:00,31.8,28.4,30.41,NNW,343,2.0,9.0,87,0.00,,,0.00,0.0,meteohub,2013-01-19 09:37:00,
2013-01-19 01:42:00,30.9,27.5,30.41,WNW,286,2.0,9.0,87,0.00,,,0.00,0.0,meteohub,2013-01-19 09:42:00,
2013-01-19 01:47:00,30.4,27.5,30.41,SE,134,5.0,7.0,89,0.00,,,0.00,0.0,meteohub,2013-01-19 09:47:00,
2013-01-19 01:52:00,32.7,30.7,30.41,WNW,287,3.0,7.0,92,0.00,,,0.00,0.0,meteohub,2013-01-19 09:52:00,
2013-01-19 01:57:00,32.7,29.5,30.41,NW,322,4.0,15.0,88,0.00,,,0.00,0.0,meteohub,2013-01-19 09:57:00,
2013-01-19 02:02:00,32.2,28.9,30.41,WNW,291,1.0,15.0,88,0.00,,,0.00,0.0,meteohub,2013-01-19 10:02:00,
2013-01-19 02:07:00,31.5,28.6,30.42,NNE,32,3.0,9.0,89,0.00,,,0.00,0.0,meteohub,2013-01-19 10:07:00,
2013-01-19 02:13:00,31.8,28.9,30.42,NW,317,2.0,11.0,89,0.00,,,0.00,0.0,meteohub,2013-01-19 10:13:00,
2013-01-19 02:18:00,32.9,30.4,30.42,East,96,3.0,17.0,90,0.00,,,0.00,0.0,meteohub,2013-01-19 10:18:00,
2013-01-19 02:23:00,33.4,30.2,30.42,SE,130,9.0,17.0,88,0.00,,,0.00,0.0,meteohub,2013-01-19 10:23:00,
2013-01-19 02:28:00,34.3,30.6,30.42,East,81,3.0,17.0,86,0.00,,,0.00,0.0,meteohub,2013-01-19 10:28:00,
2013-01-19 02:33:00,33.4,29.5,30.42,SE,132,2.0,13.0,85,0.00,,,0.00,0.0,meteohub,2013-01-19 10:33:00,
2013-01-19 02:38:00,33.1,29.8,30.42,SE,132,5.0,13.0,88,0.00,,,0.00,0.0,meteohub,2013-01-19 10:38:00,
2013-01-19 02:43:00,33.1,29.7,30.42,WSW,250,0.0,8.0,87,0.00,,,0.00,0.0,meteohub,2013-01-19 10:43:00,
2013-01-19 02:48:00,32.7,29.5,30.42,WNW,294,3.0,8.0,88,0.00,,,0.00,0.0,meteohub,2013-01-19 10:48:00,
2013-01-19 02:53:00,34.5,31.3,30.42,East,94,8.0,8.0,88,0.00,,,0.00,0.0,meteohub,2013-01-19 10:53:00,
2013-01-19 02:58:00,35.2,30.4,30.42,SE,126,1.0,13.0,82,0.00,,,0.00,0.0,meteohub,2013-01-19 10:58:00,
2013-01-19 03:04:00,34.0,29.1,30.42,North,349,3.0,13.0,82,0.00,,,0.00,0.0,meteohub,2013-01-19 11:04:00,
2013-01-19 03:09:00,32.7,28.4,30.42,NNW,331,0.0,13.0,84,0.00,,,0.00,0.0,meteohub,2013-01-19 11:09:00,
2013-01-19 03:14:00,31.8,28.4,30.42,SE,141,6.0,11.0,87,0.00,,,0.00,0.0,meteohub,2013-01-19 11:14:00,
2013-01-19 04:47:00,36.0,30.4,30.41,East,84,5.0,25.0,80,0.00,,,0.00,0.0,meteohub,2013-01-19 12:47:00,
2013-01-19 04:48:00,36.0,30.4,30.41,ESE,120,11.0,25.0,80,0.00,,,0.00,0.0,meteohub,2013-01-19 12:48:00,
2013-01-19 04:49:00,36.0,30.4,30.42,SE,133,7.0,25.0,80,0.00,,,0.00,0.0,meteohub,2013-01-19 12:49:00,
2013-01-19 04:52:00,35.8,30.6,30.41,ESE,119,10.0,25.0,81,0.00,,,0.00,0.0,meteohub,2013-01-19 12:52:00,
2013-01-19 04:54:00,35.8,30.6,30.42,East,101,7.0,25.0,81,0.00,,,0.00,0.0,meteohub,2013-01-19 12:54:00,
2013-01-19 04:59:00,36.0,30.4,30.42,ESE,113,5.0,25.0,80,0.00,,,0.00,0.0,meteohub,2013-01-19 12:59:00,
2013-01-19 05:04:00,36.0,30.4,30.42,SSW,211,6.0,18.0,80,0.00,,,0.00,0.0,meteohub,2013-01-19 13:04:00,
2013-01-19 05:09:00,36.0,30.4,30.41,ESE,107,17.0,18.0,80,0.00,,,0.00,0.0,meteohub,2013-01-19 13:09:00,
2013-01-19 05:14:00,36.0,30.4,30.41,ESE,117,11.0,22.0,80,0.00,,,0.00,0.0,meteohub,2013-01-19 13:14:00,
2013-01-19 05:19:00,36.0,30.4,30.41,SE,124,14.0,22.0,80,0.00,,,0.00,0.0,meteohub,2013-01-19 13:19:00,
2013-01-19 05:24:00,36.0,30.4,30.41,SSE,153,10.0,22.0,80,0.00,,,0.00,0.0,meteohub,2013-01-19 13:24:00,
2013-01-19 05:29:00,36.0,30.0,30.42,ENE,69,6.0,26.0,79,0.00,,,0.00,0.0,meteohub,2013-01-19 13:29:00,
2013-01-19 05:35:00,36.0,30.0,30.41,SE,136,16.0,26.0,79,0.00,,,0.00,0.0,meteohub,2013-01-19 13:35:00,
2013-01-19 05:40:00,36.0,30.0,30.42,SE,131,12.0,22.0,79,0.00,,,0.00,0.0,meteohub,2013-01-19 13:40:00,
2013-01-19 05:45:00,36.0,30.0,30.41,East,88,9.0,28.0,79,0.00,,,0.00,0.0,meteohub,2013-01-19 13:45:00,
2013-01-19 05:50:00,36.0,30.4,30.41,ESE,116,10.0,28.0,80,0.00,,,0.00,0.0,meteohub,2013-01-19 13:50:00,
2013-01-19 05:55:00,36.0,30.0,30.42,SE,126,6.0,28.0,79,0.00,,,0.00,0.0,meteohub,2013-01-19 13:55:00,
2013-01-19 06:01:00,36.0,30.0,30.41,SE,146,7.0,26.0,79,0.00,,,0.00,0.0,meteohub,2013-01-19 14:01:00,
2013-01-19 06:06:00,35.6,30.0,30.41,ESE,123,14.0,26.0,80,0.00,,,0.00,0.0,meteohub,2013-01-19 14:06:00,
2013-01-19 06:11:00,36.0,30.0,30.41,ESE,109,11.0,19.0,79,0.00,,,0.00,0.0,meteohub,2013-01-19 14:11:00,
2013-01-19 06:16:00,36.0,30.0,30.42,SSE,147,12.0,19.0,79,0.00,,,0.00,0.0,meteohub,2013-01-19 14:16:00,
2013-01-19 06:21:00,36.0,30.0,30.42,SSE,154,7.0,21.0,79,0.00,,,0.00,0.0,meteohub,2013-01-19 14:21:00,
2013-01-19 06:26:00,35.8,30.2,30.42,ESE,119,10.0,22.0,80,0.00,,,0.00,0.0,meteohub,2013-01-19 14:26:00,
2013-01-19 06:31:00,36.0,30.0,30.41,SSE,155,13.0,22.0,79,0.00,,,0.00,0.0,meteohub,2013-01-19 14:31:00,
2013-01-19 06:36:00,35.8,30.2,30.41,ENE,73,13.0,22.0,80,0.00,,,0.00,0.0,meteohub,2013-01-19 14:36:00,
2013-01-19 06:41:00,35.8,30.2,30.40,SE,133,13.0,20.0,80,0.00,,,0.00,0.0,meteohub,2013-01-19 14:41:00,
2013-01-19 06:46:00,36.0,30.0,30.41,East,92,19.0,19.0,79,0.00,,,0.00,0.0,meteohub,2013-01-19 14:46:00,
2013-01-19 06:52:00,36.0,30.0,30.41,ESE,119,17.0,24.0,79,0.00,,,0.00,0.0,meteohub,2013-01-19 14:52:00,
2013-01-19 06:57:00,36.0,30.0,30.41,ESE,107,11.0,24.0,79,0.00,,,0.00,0.0,meteohub,2013-01-19 14:57:00,
2013-01-19 07:02:00,36.0,30.0,30.42,SSE,152,7.0,24.0,79,0.00,,,0.00,0.0,meteohub,2013-01-19 15:02:00,
2013-01-19 07:07:00,36.0,30.0,30.41,SE,140,13.0,23.0,79,0.00,,,0.00,0.0,meteohub,2013-01-19 15:07:00,
2013-01-19 07:12:00,36.0,30.0,30.42,North,5,6.0,23.0,79,0.00,,,0.00,0.0,meteohub,2013-01-19 15:12:00,
2013-01-19 07:17:00,35.8,29.8,30.41,SSE,156,10.0,25.0,79,0.00,,,0.00,0.0,meteohub,2013-01-19 15:17:00,
2013-01-19 07:22:00,35.8,29.8,30.41,SE,134,9.0,25.0,79,0.00,,,0.00,0.0,meteohub,2013-01-19 15:22:00,
2013-01-19 07:27:00,36.0,30.0,30.41,ESE,120,17.0,25.0,79,0.00,,,0.00,0.0,meteohub,2013-01-19 15:27:00,
2013-01-19 07:32:00,35.6,29.7,30.41,SE,126,15.0,20.0,79,0.00,,,0.00,0.0,meteohub,2013-01-19 15:32:00,
2013-01-19 07:37:00,35.6,29.7,30.41,SE,124,13.0,20.0,79,0.00,,,0.00,0.0,meteohub,2013-01-19 15:37:00,
2013-01-19 07:42:00,36.0,29.8,30.41,East,93,4.0,25.0,78,0.00,,,0.00,0.0,meteohub,2013-01-19 15:42:00,
2013-01-19 07:47:00,36.1,29.7,30.42,SE,137,8.0,26.0,77,0.00,,,0.00,0.0,meteohub,2013-01-19 15:47:00,
2013-01-19 07:52:00,36.0,29.8,30.42,SE,128,10.0,26.0,78,0.00,,,0.00,0.0,meteohub,2013-01-19 15:52:00,
2013-01-19 07:57:00,36.0,29.8,30.42,East,93,3.0,26.0,78,0.00,,,0.00,7.0,meteohub,2013-01-19 15:57:00,
2013-01-19 08:02:00,35.8,29.8,30.42,SSE,149,6.0,21.0,79,0.00,,,0.00,14.0,meteohub,2013-01-19 16:02:00,
2013-01-19 08:07:00,35.6,29.7,30.42,SE,144,11.0,17.0,79,0.00,,,0.00,19.0,meteohub,2013-01-19 16:07:00,
2013-01-19 08:13:00,36.0,29.8,30.42,ESE,119,9.0,21.0,78,0.00,,,0.00,25.0,meteohub,2013-01-19 16:13:00,
2013-01-19 08:18:00,36.0,29.8,30.42,SE,130,9.0,21.0,78,0.00,,,0.00,26.0,meteohub,2013-01-19 16:18:00,
2013-01-19 08:23:00,36.0,29.8,30.42,ESE,112,10.0,21.0,78,0.00,,,0.00,28.0,meteohub,2013-01-19 16:23:00,
2013-01-19 08:28:00,36.0,29.8,30.43,SE,140,11.0,21.0,78,0.00,,,0.00,28.0,meteohub,2013-01-19 16:28:00,
2013-01-19 08:33:00,36.0,29.8,30.43,SSE,163,3.0,21.0,78,0.00,,,0.00,33.0,meteohub,2013-01-19 16:33:00,
2013-01-19 08:38:00,36.0,29.8,30.43,South,172,6.0,22.0,78,0.00,,,0.00,39.0,meteohub,2013-01-19 16:38:00,
2013-01-19 08:43:00,36.0,29.8,30.43,East,100,7.0,22.0,78,0.00,,,0.00,40.0,meteohub,2013-01-19 16:43:00,
2013-01-19 08:48:00,36.0,29.8,30.42,SE,137,12.0,22.0,78,0.00,,,0.00,42.0,meteohub,2013-01-19 16:48:00,
2013-01-19 08:53:00,36.0,30.0,30.43,SSE,159,5.0,23.0,79,0.00,,,0.00,49.0,meteohub,2013-01-19 16:53:00,
2013-01-19 08:58:00,36.7,30.2,30.43,SE,137,7.0,23.0,77,0.00,,,0.00,53.0,meteohub,2013-01-19 16:58:00,
2013-01-19 09:03:00,36.7,30.2,30.43,SE,140,10.0,23.0,77,0.00,,,0.00,51.0,meteohub,2013-01-19 17:03:00,
2013-01-19 09:09:00,36.5,30.0,30.43,ESE,104,20.0,22.0,77,0.00,,,0.00,49.0,meteohub,2013-01-19 17:09:00,
2013-01-19 09:14:00,36.3,29.8,30.43,ESE,123,19.0,21.0,77,0.00,,,0.00,49.0,meteohub,2013-01-19 17:14:00,
2013-01-19 09:21:00,36.7,30.2,30.43,ESE,109,13.0,21.0,77,0.00,,,0.00,49.0,meteohub,2013-01-19 17:21:00,
2013-01-19 09:27:00,36.9,30.0,30.43,SE,146,15.0,25.0,76,0.00,,,0.00,44.0,meteohub,2013-01-19 17:27:00,
2013-01-19 09:32:00,36.7,29.8,30.43,ESE,102,20.0,25.0,76,0.00,,,0.00,37.0,meteohub,2013-01-19 17:32:00,
2013-01-19 09:37:00,36.7,30.2,30.43,ESE,122,15.0,24.0,77,0.00,,,0.00,32.0,meteohub,2013-01-19 17:37:00,
2013-01-19 09:42:00,36.5,30.0,30.43,ESE,107,12.0,24.0,77,0.00,,,0.00,30.0,meteohub,2013-01-19 17:42:00,
2013-01-19 09:48:00,36.5,30.0,30.44,SE,131,11.0,22.0,77,0.00,,,0.00,32.0,meteohub,2013-01-19 17:48:00,
2013-01-19 09:54:00,36.9,30.0,30.44,ESE,114,11.0,24.0,76,0.00,,,0.00,30.0,meteohub,2013-01-19 17:54:00,
2013-01-19 09:59:00,36.9,30.0,30.44,SE,126,13.0,25.0,76,0.00,,,0.00,30.0,meteohub,2013-01-19 17:59:00,
2013-01-19 10:04:00,36.9,30.0,30.44,SE,130,15.0,25.0,76,0.00,,,0.00,32.0,meteohub,2013-01-19 18:04:00,
2013-01-19 10:10:00,36.9,30.0,30.44,SE,142,11.0,25.0,76,0.00,,,0.00,32.0,meteohub,2013-01-19 18:10:00,
2013-01-19 10:15:00,37.2,30.0,30.43,ESE,113,12.0,22.0,75,0.00,,,0.00,30.0,meteohub,2013-01-19 18:15:00,
2013-01-19 10:21:00,37.2,30.0,30.43,SE,127,18.0,26.0,75,0.00,,,0.00,32.0,meteohub,2013-01-19 18:21:00,
2013-01-19 10:26:00,36.9,30.0,30.43,ESE,117,16.0,26.0,76,0.00,,,0.00,33.0,meteohub,2013-01-19 18:26:00,
2013-01-19 10:31:00,37.0,30.2,30.43,ESE,110,13.0,28.0,76,0.00,,,0.00,35.0,meteohub,2013-01-19 18:31:00,
2013-01-19 10:37:00,37.0,29.8,30.43,East,88,10.0,28.0,75,0.00,,,0.00,35.0,meteohub,2013-01-19 18:37:00,
2013-01-19 10:42:00,37.2,30.0,30.43,ESE,106,6.0,22.0,75,0.00,,,0.00,39.0,meteohub,2013-01-19 18:42:00,
2013-01-19 10:47:00,37.2,30.4,30.43,ESE,116,4.0,21.0,76,0.00,,,0.00,42.0,meteohub,2013-01-19 18:47:00,
2013-01-19 10:52:00,37.2,30.4,30.43,East,101,9.0,21.0,76,0.00,,,0.00,46.0,meteohub,2013-01-19 18:52:00,
2013-01-19 10:57:00,37.6,30.4,30.43,ESE,113,10.0,19.0,75,0.00,,,0.00,47.0,meteohub,2013-01-19 18:57:00,
2013-01-19 11:02:00,38.7,30.7,30.42,SSE,159,6.0,22.0,73,0.00,,,0.00,213.0,meteohub,2013-01-19 19:02:00,
2013-01-19 11:09:00,37.6,30.7,30.42,SE,127,10.0,22.0,76,0.00,,,0.00,334.0,meteohub,2013-01-19 19:09:00,
2013-01-19 11:15:00,37.6,30.4,30.42,ESE,103,18.0,22.0,75,0.00,,,0.00,338.0,meteohub,2013-01-19 19:15:00,
2013-01-19 11:20:00,38.1,30.6,30.41,ENE,73,11.0,23.0,74,0.00,,,0.00,338.0,meteohub,2013-01-19 19:20:00,
2013-01-19 11:25:00,38.3,30.7,30.41,ESE,113,12.0,23.0,74,0.00,,,0.00,343.0,meteohub,2013-01-19 19:25:00,
2013-01-19 11:30:00,39.2,30.9,30.41,SE,130,13.0,23.0,72,0.00,,,0.00,353.0,meteohub,2013-01-19 19:30:00,
2013-01-19 11:36:00,39.2,30.9,30.41,ESE,123,10.0,29.0,72,0.00,,,0.00,323.0,meteohub,2013-01-19 19:36:00,
2013-01-19 11:42:00,39.4,31.1,30.40,ESE,109,13.0,29.0,72,0.00,,,0.00,313.0,meteohub,2013-01-19 19:42:00,
2013-01-19 11:47:00,39.7,31.1,30.40,East,101,8.0,29.0,71,0.00,,,0.00,327.0,meteohub,2013-01-19 19:47:00,
2013-01-19 11:53:00,39.6,31.3,30.40,ESE,110,11.0,21.0,72,0.00,,,0.00,345.0,meteohub,2013-01-19 19:53:00,
2013-01-19 11:57:00,39.6,31.3,30.39,ESE,102,16.0,21.0,72,0.00,,,0.00,353.0,meteohub,2013-01-19 19:57:00,
2013-01-19 11:58:00,39.6,31.3,30.39,SE,128,11.0,21.0,72,0.00,,,0.00,353.0,meteohub,2013-01-19 19:58:00,
2013-01-19 12:04:00,39.7,31.1,30.40,East,90,10.0,21.0,71,0.00,,,0.00,357.0,meteohub,2013-01-19 20:04:00,
2013-01-19 12:09:00,40.3,31.3,30.40,East,88,13.0,21.0,70,0.00,,,0.00,355.0,meteohub,2013-01-19 20:09:00,
2013-01-19 12:15:00,40.3,31.6,30.39,ESE,116,13.0,21.0,71,0.00,,,0.00,67.0,meteohub,2013-01-19 20:15:00,
2013-01-19 12:21:00,40.6,31.6,30.39,East,98,13.0,22.0,70,0.00,,,0.00,33.0,meteohub,2013-01-19 20:21:00,
2013-01-19 12:27:00,40.8,31.8,30.39,East,90,13.0,22.0,70,0.00,,,0.00,33.0,meteohub,2013-01-19 20:27:00,
2013-01-19 12:33:00,40.8,31.8,30.38,ENE,72,6.0,22.0,70,0.00,,,0.00,35.0,meteohub,2013-01-19 20:33:00,
2013-01-19 12:39:00,41.2,31.8,30.38,ESE,109,16.0,21.0,69,0.00,,,0.00,37.0,meteohub,2013-01-19 20:39:00,
2013-01-19 12:44:00,41.2,31.8,30.38,East,82,8.0,19.0,69,0.00,,,0.00,42.0,meteohub,2013-01-19 20:44:00,
2013-01-19 12:49:00,41.2,31.8,30.38,ESE,118,15.0,18.0,69,0.00,,,0.00,46.0,meteohub,2013-01-19 20:49:00,
2013-01-19 12:54:00,41.5,31.8,30.38,ESE,118,12.0,19.0,68,0.00,,,0.00,44.0,meteohub,2013-01-19 20:54:00,
2013-01-19 12:59:00,42.3,32.2,30.38,East,82,11.0,19.0,67,0.00,,,0.00,42.0,meteohub,2013-01-19 20:59:00,
2013-01-19 13:05:00,41.7,32.0,30.37,East,96,12.0,21.0,68,0.00,,,0.00,47.0,meteohub,2013-01-19 21:05:00,
2013-01-19 13:10:00,42.3,31.6,30.37,ESE,119,13.0,21.0,66,0.00,,,0.00,47.0,meteohub,2013-01-19 21:10:00,
2013-01-19 13:16:00,42.1,32.4,30.37,East,88,12.0,19.0,68,0.00,,,0.00,120.0,meteohub,2013-01-19 21:16:00,
2013-01-19 13:21:00,42.3,32.2,30.37,ENE,74,9.0,19.0,67,0.00,,,0.00,327.0,meteohub,2013-01-19 21:21:00,
2013-01-19 13:26:00,42.1,32.4,30.37,East,95,12.0,19.0,68,0.00,,,0.00,334.0,meteohub,2013-01-19 21:26:00,
2013-01-19 13:32:00,42.4,32.2,30.37,East,83,13.0,15.0,67,0.00,,,0.00,320.0,meteohub,2013-01-19 21:32:00,
2013-01-19 13:37:00,42.8,32.2,30.37,ESE,103,7.0,17.0,66,0.00,,,0.00,285.0,meteohub,2013-01-19 21:37:00,
2013-01-19 13:42:00,42.4,32.7,30.36,East,94,14.0,17.0,68,0.00,,,0.00,306.0,meteohub,2013-01-19 21:42:00,
2013-01-19 13:47:00,43.0,32.4,30.36,ESE,115,7.0,18.0,66,0.00,,,0.00,274.0,meteohub,2013-01-19 21:47:00,
2013-01-19 13:52:00,43.0,32.7,30.36,ESE,109,5.0,18.0,67,0.00,,,0.00,172.0,meteohub,2013-01-19 21:52:00,
2013-01-19 13:58:00,42.8,32.5,30.37,ESE,108,11.0,18.0,67,0.00,,,0.00,229.0,meteohub,2013-01-19 21:58:00,
2013-01-19 14:05:00,43.2,32.5,30.36,SE,129,10.0,16.0,66,0.00,,,0.00,269.0,meteohub,2013-01-19 22:05:00,
2013-01-19 14:10:00,43.2,32.9,30.36,ENE,65,9.0,16.0,67,0.00,,,0.00,264.0,meteohub,2013-01-19 22:10:00,
2013-01-19 14:15:00,43.3,32.7,30.36,East,86,10.0,16.0,66,0.00,,,0.00,260.0,meteohub,2013-01-19 22:15:00,
2013-01-19 14:20:00,43.2,33.3,30.36,SE,143,10.0,14.0,68,0.00,,,0.00,230.0,meteohub,2013-01-19 22:20:00,
2013-01-19 14:26:00,42.8,33.3,30.36,ESE,116,10.0,14.0,69,0.00,,,0.00,260.0,meteohub,2013-01-19 22:26:00,
2013-01-19 14:31:00,42.8,33.3,30.36,East,79,4.0,14.0,69,0.00,,,0.00,251.0,meteohub,2013-01-19 22:31:00,
2013-01-19 14:37:00,43.5,33.3,30.36,East,99,6.0,14.0,67,0.00,,,0.00,241.0,meteohub,2013-01-19 22:37:00,
2013-01-19 14:42:00,43.2,33.6,30.36,ENE,67,4.0,14.0,69,0.00,,,0.00,236.0,meteohub,2013-01-19 22:42:00,
2013-01-19 14:47:00,43.5,33.3,30.36,ESE,114,5.0,16.0,67,0.00,,,0.00,227.0,meteohub,2013-01-19 22:47:00,
2013-01-19 14:52:00,43.0,33.4,30.36,ENE,74,10.0,16.0,69,0.00,,,0.00,214.0,meteohub,2013-01-19 22:52:00,
2013-01-19 14:57:00,43.2,33.3,30.36,ENE,77,9.0,16.0,68,0.00,,,0.00,213.0,meteohub,2013-01-19 22:57:00,
2013-01-19 15:02:00,43.3,33.1,30.36,East,98,8.0,18.0,67,0.00,,,0.00,209.0,meteohub,2013-01-19 23:02:00,
2013-01-19 15:08:00,43.2,33.3,30.37,East,95,9.0,18.0,68,0.00,,,0.00,192.0,meteohub,2013-01-19 23:08:00,
2013-01-19 15:14:00,43.2,32.9,30.37,East,87,13.0,18.0,67,0.00,,,0.00,179.0,meteohub,2013-01-19 23:14:00,
2013-01-19 15:19:00,43.0,33.4,30.37,East,90,8.0,15.0,69,0.00,,,0.00,172.0,meteohub,2013-01-19 23:19:00,
2013-01-19 15:25:00,43.0,33.1,30.37,East,91,9.0,16.0,68,0.00,,,0.00,165.0,meteohub,2013-01-19 23:25:00,
2013-01-19 15:31:00,42.8,33.3,30.37,ESE,104,7.0,20.0,69,0.00,,,0.00,146.0,meteohub,2013-01-19 23:31:00,
2013-01-19 15:37:00,43.0,33.1,30.37,ENE,78,11.0,20.0,68,0.00,,,0.00,132.0,meteohub,2013-01-19 23:37:00,
2013-01-19 15:42:00,43.2,33.6,30.37,ENE,76,3.0,16.0,69,0.00,,,0.00,111.0,meteohub,2013-01-19 23:42:00,
2013-01-19 15:47:00,42.6,33.1,30.37,ENE,77,12.0,16.0,69,0.00,,,0.00,81.0,meteohub,2013-01-19 23:47:00,
2013-01-19 15:53:00,43.0,33.1,30.38,East,90,5.0,16.0,68,0.00,,,0.00,23.0,meteohub,2013-01-19 23:53:00,
2013-01-19 15:59:00,42.4,33.1,30.38,East,81,4.0,16.0,69,0.00,,,0.00,19.0,meteohub,2013-01-19 23:59:00,
2013-01-19 16:04:00,41.9,33.3,30.38,ESE,111,7.0,20.0,71,0.00,,,0.00,14.0,meteohub,2013-01-20 00:04:00,
2013-01-19 16:10:00,41.7,33.1,30.38,East,90,11.0,20.0,71,0.00,,,0.00,12.0,meteohub,2013-01-20 00:10:00,
2013-01-19 16:16:00,41.5,33.3,30.38,East,92,13.0,18.0,72,0.00,,,0.00,12.0,meteohub,2013-01-20 00:16:00,
2013-01-19 16:22:00,41.7,33.1,30.38,ESE,116,6.0,20.0,71,0.00,,,0.00,9.0,meteohub,2013-01-20 00:22:00,
2013-01-19 16:28:00,41.2,33.4,30.38,SSE,155,7.0,20.0,74,0.00,,,0.00,9.0,meteohub,2013-01-20 00:28:00,
2013-01-19 16:33:00,40.8,32.9,30.38,ESE,107,11.0,20.0,73,0.00,,,0.00,7.0,meteohub,2013-01-20 00:33:00,
2013-01-19 16:39:00,41.5,32.9,30.39,ESE,117,11.0,16.0,71,0.00,,,0.00,5.0,meteohub,2013-01-20 00:39:00,
2013-01-19 16:44:00,40.8,32.9,30.39,ESE,103,10.0,19.0,73,0.00,,,0.00,0.0,meteohub,2013-01-20 00:44:00,
2013-01-19 16:49:00,40.8,33.3,30.39,ESE,105,14.0,19.0,74,0.00,,,0.00,0.0,meteohub,2013-01-20 00:49:00,
2013-01-19 16:54:00,40.8,32.9,30.39,ESE,114,12.0,18.0,73,0.00,,,0.00,0.0,meteohub,2013-01-20 00:54:00,
2013-01-19 17:00:00,40.8,33.3,30.39,SE,127,3.0,23.0,74,0.00,,,0.00,0.0,meteohub,2013-01-20 01:00:00,
2013-01-19 17:05:00,39.9,32.9,30.39,WNW,285,3.0,18.0,76,0.00,,,0.00,0.0,meteohub,2013-01-20 01:05:00,
2013-01-19 17:11:00,39.9,32.9,30.39,ESE,115,10.0,18.0,76,0.00,,,0.00,0.0,meteohub,2013-01-20 01:11:00,
2013-01-19 17:17:00,40.3,33.1,30.39,ESE,121,8.0,16.0,75,0.00,,,0.00,0.0,meteohub,2013-01-20 01:17:00,
2013-01-19 17:23:00,39.9,32.9,30.39,ESE,108,12.0,17.0,76,0.00,,,0.00,0.0,meteohub,2013-01-20 01:23:00,
2013-01-19 17:28:00,40.3,32.7,30.39,ESE,112,6.0,17.0,74,0.00,,,0.00,0.0,meteohub,2013-01-20 01:28:00,
2013-01-19 17:33:00,40.3,32.7,30.40,East,88,8.0,16.0,74,0.00,,,0.00,0.0,meteohub,2013-01-20 01:33:00,
2013-01-19 17:38:00,40.3,33.1,30.40,SE,126,6.0,17.0,75,0.00,,,0.00,0.0,meteohub,2013-01-20 01:38:00,
2013-01-19 17:44:00,39.7,32.7,30.39,ENE,73,10.0,19.0,76,0.00,,,0.00,0.0,meteohub,2013-01-20 01:44:00,
2013-01-19 17:49:00,40.1,32.9,30.40,ENE,65,5.0,19.0,75,0.00,,,0.00,0.0,meteohub,2013-01-20 01:49:00,
2013-01-19 17:55:00,39.9,32.7,30.40,SE,125,10.0,19.0,75,0.00,,,0.00,0.0,meteohub,2013-01-20 01:55:00,
2013-01-19 18:00:00,39.7,33.1,30.40,ESE,121,9.0,20.0,77,0.00,,,0.00,0.0,meteohub,2013-01-20 02:00:00,
2013-01-19 18:06:00,39.6,32.9,30.39,ESE,107,11.0,22.0,77,0.00,,,0.00,0.0,meteohub,2013-01-20 02:06:00,
2013-01-19 18:11:00,39.7,32.7,30.40,East,82,2.0,22.0,76,0.00,,,0.00,0.0,meteohub,2013-01-20 02:11:00,
2013-01-19 18:16:00,39.6,32.9,30.40,NNE,24,2.0,22.0,77,0.00,,,0.00,0.0,meteohub,2013-01-20 02:16:00,
2013-01-19 18:21:00,39.2,32.5,30.40,North,0,3.0,17.0,77,0.00,,,0.00,0.0,meteohub,2013-01-20 02:21:00,
2013-01-19 18:26:00,38.5,32.2,30.40,East,98,7.0,15.0,78,0.00,,,0.00,0.0,meteohub,2013-01-20 02:26:00,
2013-01-19 18:32:00,37.8,31.8,30.40,West,281,2.0,16.0,79,0.00,,,0.00,0.0,meteohub,2013-01-20 02:32:00,
2013-01-19 18:37:00,36.1,30.9,30.40,WNW,295,1.0,16.0,81,0.00,,,0.00,0.0,meteohub,2013-01-20 02:37:00,
2013-01-19 18:42:00,35.6,31.8,30.40,ESE,123,1.0,16.0,86,0.00,,,0.00,0.0,meteohub,2013-01-20 02:42:00,
2013-01-19 18:47:00,35.4,31.3,30.41,SE,134,10.0,10.0,85,0.00,,,0.00,0.0,meteohub,2013-01-20 02:47:00,
2013-01-19 18:52:00,35.2,30.9,30.41,North,5,5.0,11.0,84,0.00,,,0.00,0.0,meteohub,2013-01-20 02:52:00,
2013-01-19 18:57:00,36.1,31.8,30.41,NNW,337,3.0,11.0,84,0.00,,,0.00,0.0,meteohub,2013-01-20 02:57:00,
2013-01-19 19:02:00,35.4,31.1,30.41,ENE,61,3.0,11.0,84,0.00,,,0.00,0.0,meteohub,2013-01-20 03:02:00,
2013-01-19 19:07:00,36.3,31.6,30.41,NW,319,1.0,13.0,83,0.00,,,0.00,0.0,meteohub,2013-01-20 03:07:00,
2013-01-19 19:12:00,36.7,32.9,30.41,ESE,123,9.0,13.0,86,0.00,,,0.00,0.0,meteohub,2013-01-20 03:12:00,
2013-01-19 19:17:00,38.7,32.7,30.41,East,88,9.0,17.0,79,0.00,,,0.00,0.0,meteohub,2013-01-20 03:17:00,
2013-01-19 19:22:00,38.8,32.9,30.42,ENE,76,3.0,17.0,79,0.00,,,0.00,0.0,meteohub,2013-01-20 03:22:00,
2013-01-19 19:27:00,39.0,32.4,30.42,SSE,159,2.0,19.0,77,0.00,,,0.00,0.0,meteohub,2013-01-20 03:27:00,
2013-01-19 19:32:00,38.5,32.5,30.42,SE,127,19.0,19.0,79,0.00,,,0.00,0.0,meteohub,2013-01-20 03:32:00,
2013-01-19 19:38:00,39.2,32.5,30.42,SSE,153,5.0,19.0,77,0.00,,,0.00,0.0,meteohub,2013-01-20 03:38:00,
2013-01-19 19:43:00,39.4,33.1,30.42,ESE,120,9.0,19.0,78,0.00,,,0.00,0.0,meteohub,2013-01-20 03:43:00,
2013-01-19 19:48:00,39.6,32.9,30.43,NW,311,6.0,19.0,77,0.00,,,0.00,0.0,meteohub,2013-01-20 03:48:00,
2013-01-19 19:53:00,38.1,32.2,30.43,SE,135,5.0,18.0,79,0.00,,,0.00,0.0,meteohub,2013-01-20 03:53:00,
2013-01-19 19:59:00,37.9,32.0,30.43,WNW,286,6.0,16.0,79,0.00,,,0.00,0.0,meteohub,2013-01-20 03:59:00,
2013-01-19 20:04:00,37.6,31.6,30.43,ESE,118,6.0,16.0,79,0.00,,,0.00,0.0,meteohub,2013-01-20 04:04:00,
2013-01-19 20:10:00,37.9,32.9,30.42,ESE,109,14.0,14.0,82,0.00,,,0.00,0.0,meteohub,2013-01-20 04:10:00,
2013-01-19 20:15:00,38.7,32.7,30.43,SSE,159,4.0,21.0,79,0.00,,,0.00,0.0,meteohub,2013-01-20 04:15:00,
2013-01-19 20:20:00,37.9,32.4,30.43,ESE,109,2.0,21.0,80,0.00,,,0.00,0.0,meteohub,2013-01-20 04:20:00,
2013-01-19 20:26:00,38.3,32.7,30.43,SE,141,7.0,16.0,80,0.00,,,0.00,0.0,meteohub,2013-01-20 04:26:00,
2013-01-19 20:31:00,38.8,32.9,30.43,SE,135,13.0,15.0,79,0.00,,,0.00,0.0,meteohub,2013-01-20 04:31:00,
2013-01-19 20:36:00,39.4,32.7,30.43,SE,138,17.0,18.0,77,0.00,,,0.00,0.0,meteohub,2013-01-20 04:36:00,
2013-01-19 20:41:00,39.2,32.9,30.43,ESE,106,6.0,18.0,78,0.00,,,0.00,0.0,meteohub,2013-01-20 04:41:00,
2013-01-19 20:47:00,37.9,32.7,30.43,East,99,2.0,18.0,81,0.00,,,0.00,0.0,meteohub,2013-01-20 04:47:00,
2013-01-19 20:52:00,38.5,32.5,30.43,ESE,114,10.0,18.0,79,0.00,,,0.00,0.0,meteohub,2013-01-20 04:52:00,
2013-01-19 20:57:00,39.2,32.9,30.43,ESE,117,12.0,18.0,78,0.00,,,0.00,0.0,meteohub,2013-01-20 04:57:00,
2013-01-19 21:00:00,39.4,32.7,30.43,SE,128,13.0,18.0,77,0.00,,,0.00,0.0,meteohub,2013-01-20 05:00:00,
2013-01-19 21:02:00,39.4,32.7,30.43,SSE,163,6.0,19.0,77,0.00,,,0.00,0.0,meteohub,2013-01-20 05:02:00,
2013-01-19 21:04:00,39.4,32.7,30.43,South,191,5.0,19.0,77,0.00,,,0.00,0.0,meteohub,2013-01-20 05:04:00,
2013-01-19 21:06:00,39.4,32.7,30.43,ESE,119,11.0,19.0,77,0.00,,,0.00,0.0,meteohub,2013-01-20 05:06:00,
2013-01-19 21:11:00,39.2,32.9,30.44,SE,129,10.0,25.0,78,0.00,,,0.00,0.0,meteohub,2013-01-20 05:11:00,
2013-01-19 21:16:00,38.8,32.5,30.44,ESE,120,13.0,25.0,78,0.00,,,0.00,0.0,meteohub,2013-01-20 05:16:00,
2013-01-19 21:21:00,39.0,32.7,30.43,South,169,6.0,25.0,78,0.00,,,0.00,0.0,meteohub,2013-01-20 05:21:00,
2013-01-19 21:26:00,38.8,32.9,30.43,SE,130,11.0,25.0,79,0.00,,,0.00,0.0,meteohub,2013-01-20 05:26:00,
2013-01-19 21:31:00,38.8,32.9,30.43,ENE,78,10.0,25.0,79,0.00,,,0.00,0.0,meteohub,2013-01-20 05:31:00,
2013-01-19 21:36:00,39.0,32.7,30.43,South,170,7.0,21.0,78,0.00,,,0.00,0.0,meteohub,2013-01-20 05:36:00,
2013-01-19 21:41:00,38.8,32.5,30.44,SSE,154,6.0,21.0,78,0.00,,,0.00,0.0,meteohub,2013-01-20 05:41:00,
2013-01-19 21:46:00,39.0,32.7,30.43,ESE,111,13.0,21.0,78,0.00,,,0.00,0.0,meteohub,2013-01-20 05:46:00,
2013-01-19 21:51:00,39.0,32.7,30.44,South,177,7.0,18.0,78,0.00,,,0.00,0.0,meteohub,2013-01-20 05:51:00,
2013-01-19 21:56:00,38.8,32.5,30.44,ESE,107,3.0,19.0,78,0.00,,,0.00,0.0,meteohub,2013-01-20 05:56:00,
2013-01-19 22:01:00,38.8,32.5,30.44,ESE,117,6.0,19.0,78,0.00,,,0.00,0.0,meteohub,2013-01-20 06:01:00,
2013-01-19 22:06:00,38.8,32.5,30.44,ESE,111,8.0,19.0,78,0.00,,,0.00,0.0,meteohub,2013-01-20 06:06:00,
2013-01-19 22:11:00,38.8,32.5,30.44,South,173,10.0,21.0,78,0.00,,,0.00,0.0,meteohub,2013-01-20 06:11:00,
2013-01-19 22:16:00,38.8,32.9,30.44,East,87,5.0,21.0,79,0.00,,,0.00,0.0,meteohub,2013-01-20 06:16:00,
2013-01-19 22:21:00,38.8,32.9,30.44,SE,144,11.0,21.0,79,0.00,,,0.00,0.0,meteohub,2013-01-20 06:21:00,
2013-01-19 22:26:00,38.8,32.9,30.44,South,173,2.0,20.0,79,0.00,,,0.00,0.0,meteohub,2013-01-20 06:26:00,
2013-01-19 22:31:00,38.8,32.9,30.44,South,178,3.0,20.0,79,0.00,,,0.00,0.0,meteohub,2013-01-20 06:31:00,
2013-01-19 22:37:00,38.5,32.5,30.44,SE,146,12.0,20.0,79,0.00,,,0.00,0.0,meteohub,2013-01-20 06:37:00,
2013-01-19 22:42:00,38.7,32.7,30.44,ESE,119,6.0,20.0,79,0.00,,,0.00,0.0,meteohub,2013-01-20 06:42:00,
2013-01-19 22:47:00,38.7,32.7,30.44,ESE,111,18.0,20.0,79,0.00,,,0.00,0.0,meteohub,2013-01-20 06:47:00,
2013-01-19 22:52:00,38.7,32.7,30.43,ESE,115,6.0,23.0,79,0.00,,,0.00,0.0,meteohub,2013-01-20 06:52:00,
2013-01-19 22:57:00,38.5,31.8,30.44,SSE,147,5.0,23.0,77,0.00,,,0.00,0.0,meteohub,2013-01-20 06:57:00,
2013-01-19 23:02:00,37.6,31.6,30.45,ESE,116,12.0,23.0,79,0.00,,,0.00,0.0,meteohub,2013-01-20 07:02:00,
2013-01-19 23:07:00,38.1,32.2,30.44,SE,142,8.0,23.0,79,0.00,,,0.00,0.0,meteohub,2013-01-20 07:07:00,
2013-01-19 23:12:00,38.8,32.5,30.44,SE,125,10.0,20.0,78,0.00,,,0.00,0.0,meteohub,2013-01-20 07:12:00,
2013-01-19 23:17:00,38.8,32.2,30.45,South,189,7.0,20.0,77,0.00,,,0.00,0.0,meteohub,2013-01-20 07:17:00,
2013-01-19 23:22:00,38.8,32.5,30.45,SE,125,7.0,17.0,78,0.00,,,0.00,0.0,meteohub,2013-01-20 07:22:00,
2013-01-19 23:27:00,38.7,32.4,30.45,SSE,150,7.0,16.0,78,0.00,,,0.00,0.0,meteohub,2013-01-20 07:27:00,
2013-01-19 23:32:00,38.5,32.5,30.44,ESE,121,7.0,17.0,79,0.00,,,0.00,0.0,meteohub,2013-01-20 07:32:00,
2013-01-19 23:37:00,37.9,32.0,30.45,SSE,161,6.0,17.0,79,0.00,,,0.00,0.0,meteohub,2013-01-20 07:37:00,
2013-01-19 23:42:00,37.9,32.0,30.45,SE,128,7.0,15.0,79,0.00,,,0.00,0.0,meteohub,2013-01-20 07:42:00,
2013-01-19 23:47:00,38.5,32.2,30.45,East,92,15.0,17.0,78,0.00,,,0.00,0.0,meteohub,2013-01-20 07:47:00,
2013-01-19 23:52:00,38.5,32.2,30.45,East,88,12.0,19.0,78,0.00,,,0.00,0.0,meteohub,2013-01-20 07:52:00,
2013-01-19 23:57:00,38.5,32.2,30.45,SW,227,3.0,23.0,78,0.00,,,0.00,0.0,meteohub,2013-01-20 07:57:00,